Time;durP1;ratioP1;P1;durP2;ratioP2;P2;SDS_P1;SDS_P2;PMS_P1;PMS_P2;Temp;Humidity;BMP_temperature;BMP_pressure;BME280_temperature;BME280_humidity;BME280_pressure;Samples;Min_cycle;Max_cycle;Signal;HPM_P1;HPM_P2
2022/12/29 00:02:31;;;;;;;5.80;1.85;;;;;;;10.37;60.31;99029.31;10382242;28;20720;-60
2022/12/29 00:07:33;;;;;;;4.20;1.88;;;;;;;10.31;60.92;99029.75;10383197;28;20448;-60
2022/12/29 00:17:55;;;;;;;7.23;2.10;;;;;;;10.08;62.50;99030.56;10385289;28;20879;-60
2022/12/29 00:44:32;;;;;;;6.57;2.17;;;;;;;9.48;66.46;99005.22;10382265;28;20053;-60
2022/12/29 00:49:34;;;;;;;4.82;2.20;;;;;;;9.44;66.79;99002.94;10382946;28;20240;-60
2022/12/29 00:54:38;;;;;;;6.22;2.20;;;;;;;9.34;67.46;99002.72;10381597;28;20052;-60
2022/12/29 00:59:40;;;;;;;5.13;2.30;;;;;;;9.45;67.03;98994.16;10381729;28;20069;-60
2022/12/29 01:04:42;;;;;;;5.05;2.00;;;;;;;9.42;67.21;98976.94;10378934;28;20140;-60
2022/12/29 01:15:05;;;;;;;3.65;2.25;;;;;;;9.49;67.00;98974.72;10386750;28;20505;-60
2022/12/29 01:20:08;;;;;;;4.95;2.30;;;;;;;9.47;67.27;98953.13;10388823;28;20304;-60
2022/12/29 01:25:09;;;;;;;8.10;1.92;;;;;;;9.47;67.21;98953.97;10387278;28;20445;-60
2022/12/29 01:30:11;;;;;;;4.15;2.10;;;;;;;9.54;67.05;98965.63;10389320;28;20045;-60
2022/12/29 01:35:14;;;;;;;4.32;2.00;;;;;;;9.58;66.85;98958.44;10388083;28;20049;-60
2022/12/29 01:40:18;;;;;;;3.75;1.80;;;;;;;9.60;66.97;98973.06;10389206;28;20489;-60
2022/12/29 01:45:20;;;;;;;3.47;1.90;;;;;;;9.68;66.70;98974.31;10388303;28;20056;-60
2022/12/29 01:50:27;;;;;;;5.72;2.75;;;;;;;9.72;66.85;98970.53;10388398;28;20053;-61
2022/12/29 01:55:34;;;;;;;6.78;1.77;;;;;;;9.73;66.89;98982.66;10388075;28;20052;-60
2022/12/29 02:00:36;;;;;;;3.15;1.50;;;;;;;9.73;66.96;98967.81;10387645;28;20072;-60
2022/12/29 02:05:43;;;;;;;3.80;1.60;;;;;;;9.83;66.50;98960.97;10387171;28;20531;-61
2022/12/29 02:10:45;;;;;;;1.92;1.20;;;;;;;9.83;66.45;98950.53;10389106;28;20421;-60
2022/12/29 02:16:08;;;;;;;4.22;1.50;;;;;;;9.87;66.30;98961.63;10387799;28;20311;-60
2022/12/29 02:21:45;;;;;;;2.40;1.30;;;;;;;9.98;65.94;98938.16;10387845;28;20056;-61
2022/12/29 02:27:18;;;;;;;2.22;1.40;;;;;;;9.88;65.99;98930.16;10386277;28;20144;-61
2022/12/29 02:32:41;;;;;;;2.15;1.23;;;;;;;10.00;66.27;98937.09;10385995;28;20140;-60
2022/12/29 02:37:59;;;;;;;3.20;1.48;;;;;;;9.98;66.46;98943.38;10387283;28;20057;-60
2022/12/29 02:43:03;;;;;;;2.10;1.30;;;;;;;9.89;66.90;98928.38;10384413;28;20493;-60
2022/12/29 02:48:25;;;;;;;2.00;1.30;;;;;;;9.80;67.81;98923.81;10386892;28;20057;-60
2022/12/29 02:58:49;;;;;;;4.53;1.50;;;;;;;9.73;68.10;98912.97;10385805;28;20380;-60
2022/12/29 03:04:00;;;;;;;2.80;1.50;;;;;;;9.72;68.36;98915.69;10390864;28;20054;-61
2022/12/29 03:09:21;;;;;;;2.70;1.40;;;;;;;9.51;69.23;98918.03;10393559;28;20041;-60
2022/12/29 03:20:01;;;;;;;2.47;1.50;;;;;;;9.53;69.27;98906.56;10393512;28;20541;-60
2022/12/29 03:25:23;;;;;;;3.35;1.60;;;;;;;9.48;69.79;98898.19;10391709;28;20049;-60
2022/12/29 03:30:28;;;;;;;2.33;1.50;;;;;;;9.49;69.49;98901.66;10391763;28;20053;-60
2022/12/29 03:35:35;;;;;;;3.28;1.38;;;;;;;9.46;69.67;98884.44;10391325;28;20406;-60
2022/12/29 03:40:40;;;;;;;5.00;1.33;;;;;;;9.51;69.51;98871.91;10392126;28;20055;-61
2022/12/29 03:45:42;;;;;;;2.83;1.42;;;;;;;9.52;69.37;98872.75;10385285;28;20081;-60
2022/12/29 03:50:44;;;;;;;4.78;1.40;;;;;;;9.68;68.83;98864.66;10388903;28;20054;-60
2022/12/29 03:55:45;;;;;;;2.65;1.30;;;;;;;9.72;68.60;98859.09;10390308;28;20060;-60
2022/12/29 04:00:47;;;;;;;3.30;1.42;;;;;;;9.73;68.53;98854.72;10390112;28;20524;-60
2022/12/29 04:05:49;;;;;;;2.30;1.30;;;;;;;9.68;68.36;98851.59;10385809;28;20068;-60
2022/12/29 04:10:50;;;;;;;3.95;2.05;;;;;;;9.77;68.22;98859.59;10385390;28;20513;-60
2022/12/29 04:15:52;;;;;;;4.90;1.67;;;;;;;9.79;68.18;98869.94;10384079;28;20049;-60
2022/12/29 04:21:00;;;;;;;4.28;1.70;;;;;;;9.75;68.71;98869.31;10383832;28;20391;-60
2022/12/29 04:26:02;;;;;;;2.75;1.40;;;;;;;9.76;68.41;98854.47;10378219;28;20048;-60
2022/12/29 04:31:04;;;;;;;5.82;1.70;;;;;;;9.80;68.39;98848.94;10383774;28;20049;-60
2022/12/29 04:36:06;;;;;;;2.10;1.50;;;;;;;9.85;68.13;98859.03;10414900;28;20062;-60
2022/12/29 04:41:08;;;;;;;4.45;1.60;;;;;;;9.89;68.15;98863.91;10384445;28;20111;-60
2022/12/29 04:46:09;;;;;;;5.43;1.60;;;;;;;9.79;68.13;98860.31;10382762;28;20057;-60
2022/12/29 04:51:11;;;;;;;3.45;1.60;;;;;;;9.84;68.13;98849.53;10390527;28;20123;-60
2022/12/29 04:56:12;;;;;;;4.45;1.98;;;;;;;9.80;67.68;98848.94;10391143;28;21303;-60
2022/12/29 05:01:14;;;;;;;7.53;1.63;;;;;;;9.91;67.57;98840.31;10390460;28;20053;-60
2022/12/29 05:06:16;;;;;;;5.07;1.80;;;;;;;9.89;67.31;98847.44;10390969;28;20501;-60
2022/12/29 05:11:19;;;;;;;3.97;1.60;;;;;;;10.00;66.96;98847.44;10391582;28;20414;-60
2022/12/29 05:16:20;;;;;;;4.97;1.75;;;;;;;10.02;66.52;98842.94;10391044;28;20046;-60
2022/12/29 05:21:22;;;;;;;4.35;1.85;;;;;;;10.00;66.39;98839.59;10388713;28;20046;-60
2022/12/29 05:26:24;;;;;;;6.55;1.85;;;;;;;10.00;66.63;98844.84;10389925;28;20060;-61
2022/12/29 05:31:26;;;;;;;3.67;1.60;;;;;;;9.95;66.61;98841.75;10389750;28;20052;-60
2022/12/29 05:36:28;;;;;;;4.97;1.70;;;;;;;9.97;66.51;98832.00;10390068;28;20156;-61
2022/12/29 05:41:37;;;;;;;4.28;1.90;;;;;;;9.95;66.42;98836.53;10390838;28;20045;-61
2022/12/29 05:46:39;;;;;;;2.67;1.55;;;;;;;9.91;66.33;98822.03;10389560;28;20124;-61
2022/12/29 05:51:41;;;;;;;2.70;1.50;;;;;;;9.94;66.27;98837.47;10389397;28;20045;-60
2022/12/29 05:56:43;;;;;;;3.85;1.60;;;;;;;10.02;65.79;98835.94;10386814;28;20053;-61
2022/12/29 06:01:44;;;;;;;3.30;1.60;;;;;;;10.09;65.50;98846.78;10387318;28;20049;-62
2022/12/29 06:06:46;;;;;;;3.63;1.45;;;;;;;10.11;65.38;98845.72;10390296;28;20111;-61
2022/12/29 06:11:48;;;;;;;3.33;1.60;;;;;;;10.15;65.37;98841.94;10374933;28;20312;-61
2022/12/29 06:16:50;;;;;;;3.97;1.58;;;;;;;10.14;65.37;98836.78;10387585;28;20051;-61
2022/12/29 06:21:52;;;;;;;4.35;1.70;;;;;;;10.12;65.37;98849.97;10387208;28;20509;-60
2022/12/29 06:26:54;;;;;;;3.58;1.90;;;;;;;10.18;65.55;98846.06;10387503;28;20049;-61
2022/12/29 06:31:57;;;;;;;4.32;1.70;;;;;;;10.17;65.10;98850.47;10387951;28;20561;-60
2022/12/29 06:36:59;;;;;;;7.35;1.88;;;;;;;10.05;66.01;98827.06;10387282;28;20061;-61
2022/12/29 06:42:01;;;;;;;2.67;1.55;;;;;;;10.02;66.06;98827.28;10386553;28;20041;-58
2022/12/29 06:47:03;;;;;;;4.82;1.92;;;;;;;10.01;66.22;98839.50;10381284;28;20452;-59
2022/12/29 06:52:04;;;;;;;5.15;1.50;;;;;;;9.96;66.22;98814.66;10382770;28;20061;-59
2022/12/29 06:57:13;;;;;;;3.15;1.60;;;;;;;9.92;66.27;98824.53;10380335;28;20054;-59
2022/12/29 07:02:16;;;;;;;3.10;1.40;;;;;;;9.90;66.66;98831.63;10384186;28;20053;-59
2022/12/29 07:07:21;;;;;;;6.18;1.42;;;;;;;9.90;66.88;98825.56;10381743;28;20050;-59
2022/12/29 07:12:23;;;;;;;3.95;1.80;;;;;;;9.85;67.08;98832.94;10380147;28;20053;-59
2022/12/29 07:17:25;;;;;;;3.08;1.35;;;;;;;9.88;67.15;98825.69;10380678;28;20057;-59
2022/12/29 07:22:26;;;;;;;2.47;1.52;;;;;;;9.88;67.01;98830.06;10383764;28;20050;-59
2022/12/29 07:27:28;;;;;;;3.95;1.30;;;;;;;9.86;66.57;98818.91;10381022;28;20045;-60
2022/12/29 07:32:33;;;;;;;1.90;1.20;;;;;;;9.92;66.42;98834.13;10382393;28;20053;-60
2022/12/29 07:37:35;;;;;;;2.30;1.25;;;;;;;9.98;66.46;98844.94;10380767;28;20050;-60
2022/12/29 07:42:36;;;;;;;2.28;1.17;;;;;;;9.94;66.55;98846.13;10381624;28;20049;-61
2022/12/29 07:47:38;;;;;;;2.50;1.17;;;;;;;9.99;66.21;98862.28;10375177;28;20045;-60
2022/12/29 07:52:40;;;;;;;3.45;1.45;;;;;;;9.90;66.91;98876.03;10364152;28;20042;-60
2022/12/29 07:57:42;;;;;;;5.50;2.53;;;;;;;9.76;67.93;98889.25;10376148;28;20046;-60
2022/12/29 08:02:43;;;;;;;3.92;1.50;;;;;;;9.34;70.00;98932.28;10381728;28;20057;-60
2022/12/29 08:07:46;;;;;;;2.85;1.40;;;;;;;9.32;69.94;98928.13;10380157;28;20421;-60
2022/12/29 08:12:48;;;;;;;2.40;1.30;;;;;;;9.32;70.01;98921.13;10381212;28;20041;-61
2022/12/29 08:17:50;;;;;;;2.13;1.30;;;;;;;9.34;69.87;98929.66;10379633;28;20140;-61
2022/12/29 08:22:51;;;;;;;2.13;1.10;;;;;;;9.43;69.22;98941.25;10379860;28;20046;-62
2022/12/29 08:27:53;;;;;;;4.10;1.10;;;;;;;9.48;69.22;98924.31;10380241;28;20199;-62
2022/12/29 08:32:54;;;;;;;1.90;1.00;;;;;;;9.51;69.00;98923.25;10383130;28;20045;-59
2022/12/29 08:37:56;;;;;;;2.08;1.17;;;;;;;9.46;68.74;98928.00;10376917;28;20141;-59
2022/12/29 08:42:58;;;;;;;1.60;1.10;;;;;;;9.32;68.79;98928.13;10381777;28;20053;-58
2022/12/29 08:47:59;;;;;;;3.92;1.70;;;;;;;9.26;68.88;98941.59;10378601;28;20490;-59
2022/12/29 08:53:01;;;;;;;2.60;1.70;;;;;;;9.27;68.85;98936.28;10380295;28;20053;-58
2022/12/29 08:58:02;;;;;;;3.55;1.55;;;;;;;9.43;68.63;98956.91;10379201;28;20061;-62
2022/12/29 09:03:04;;;;;;;5.30;2.58;;;;;;;9.48;68.41;98973.88;10377813;28;20673;-61
2022/12/29 09:08:06;;;;;;;5.38;2.20;;;;;;;9.58;68.18;98987.16;10378402;28;20053;-60
2022/12/29 09:13:08;;;;;;;2.53;1.27;;;;;;;9.68;67.88;98985.59;10380413;28;20617;-61
2022/12/29 09:18:10;;;;;;;2.67;1.45;;;;;;;9.84;67.38;98977.47;10379664;28;20048;-62
2022/12/29 09:23:19;;;;;;;4.85;2.30;;;;;;;10.02;67.04;98989.22;10379630;28;20104;-61
2022/12/29 09:28:22;;;;;;;8.30;5.43;;;;;;;10.10;66.73;99010.41;10376448;28;20049;-61
2022/12/29 09:33:24;;;;;;;5.10;3.03;;;;;;;9.97;66.97;99002.59;10382256;28;20065;-61
2022/12/29 09:38:26;;;;;;;3.80;1.80;;;;;;;9.97;67.20;98993.94;10383300;28;20551;-61
2022/12/29 09:43:49;;;;;;;4.03;2.00;;;;;;;10.04;66.88;99005.63;10384212;28;20060;-61
2022/12/29 09:49:15;;;;;;;4.55;2.00;;;;;;;10.17;66.49;99019.47;10384586;28;20053;-61
2022/12/29 09:54:35;;;;;;;3.65;1.30;;;;;;;10.24;66.57;99015.44;10386295;28;20060;-61
2022/12/29 09:59:42;;;;;;;4.18;2.65;;;;;;;10.40;66.31;99018.59;10383781;28;20068;-61
2022/12/29 10:04:44;;;;;;;3.03;1.58;;;;;;;10.50;66.32;98999.53;10382927;28;20612;-61
2022/12/29 10:10:01;;;;;;;4.55;2.78;;;;;;;10.73;65.45;99012.66;10384377;28;20050;-61
2022/12/29 10:15:17;;;;;;;4.07;2.00;;;;;;;10.36;65.24;99020.63;10386608;28;20366;-61
2022/12/29 10:20:24;;;;;;;4.95;2.45;;;;;;;10.10;66.70;99018.22;10385840;28;20049;-61
2022/12/29 10:25:30;;;;;;;6.07;2.40;;;;;;;9.94;67.56;99018.50;10387231;28;20053;-61
2022/12/29 10:30:35;;;;;;;4.13;2.60;;;;;;;9.70;68.25;99020.25;10409897;28;20521;-61
2022/12/29 10:35:40;;;;;;;5.47;2.50;;;;;;;9.71;68.56;99029.75;10377444;28;20056;-61
2022/12/29 10:40:56;;;;;;;5.70;2.70;;;;;;;9.41;69.74;99003.16;10383331;28;20045;-61
2022/12/29 10:46:02;;;;;;;5.55;2.67;;;;;;;9.63;69.09;99017.19;10382843;28;20198;-61
2022/12/29 10:51:08;;;;;;;7.22;3.25;;;;;;;9.63;69.30;99004.16;10370194;28;20054;-61
2022/12/29 10:56:21;;;;;;;8.43;3.63;;;;;;;9.71;69.37;99005.44;10387793;28;20055;-61
2022/12/29 11:01:32;;;;;;;6.88;2.92;;;;;;;9.73;68.30;99009.56;10384466;28;20180;-62
2022/12/29 11:06:34;;;;;;;3.95;1.52;;;;;;;9.80;68.23;99017.81;10370795;28;20064;-59
2022/12/29 11:11:37;;;;;;;6.78;2.58;;;;;;;9.84;67.94;99029.72;10382928;28;20578;-59
2022/12/29 11:16:39;;;;;;;6.60;1.50;;;;;;;9.82;67.41;99026.38;10385321;28;20322;-59
2022/12/29 11:21:42;;;;;;;5.20;1.88;;;;;;;9.96;66.91;99034.91;10384375;28;20052;-60
2022/12/29 11:26:44;;;;;;;5.75;1.80;;;;;;;10.12;66.00;99029.41;10385203;28;20600;-59
2022/12/29 11:31:55;;;;;;;5.50;1.67;;;;;;;10.04;64.86;99029.13;10385796;28;20052;-60
2022/12/29 11:37:43;;;;;;;5.32;1.50;;;;;;;9.97;63.89;99035.75;10385277;28;20050;-60
2022/12/29 11:42:54;;;;;;;5.57;1.30;;;;;;;9.96;62.46;99045.34;10381503;28;20045;-60
2022/12/29 11:48:08;;;;;;;6.40;1.90;;;;;;;10.00;62.00;99051.19;10385416;28;20543;-59
2022/12/29 11:53:23;;;;;;;7.65;2.10;;;;;;;10.09;60.62;99048.78;10382817;28;20054;-59
2022/12/29 11:58:34;;;;;;;7.53;2.30;;;;;;;10.12;59.62;99039.84;10384568;28;20054;-59
2022/12/29 12:03:40;;;;;;;5.47;1.60;;;;;;;10.10;58.76;99037.38;10384531;28;20207;-60
2022/12/29 12:08:56;;;;;;;5.95;1.45;;;;;;;10.16;58.51;99039.53;10383135;28;20057;-59
2022/12/29 12:14:23;;;;;;;5.63;1.80;;;;;;;10.07;57.51;99037.59;10379783;28;20041;-59
2022/12/29 12:19:43;;;;;;;7.97;1.90;;;;;;;10.23;57.35;99050.38;10380205;28;20482;-60
2022/12/29 12:24:52;;;;;;;6.13;1.63;;;;;;;10.39;57.74;99053.53;10384200;28;20050;-61
2022/12/29 12:30:02;;;;;;;8.27;1.75;;;;;;;10.33;57.28;99054.00;10381205;28;20060;-60
2022/12/29 12:35:04;;;;;;;;;;;;;;;10.11;57.46;99046.03;10383473;28;20138;-60
2022/12/29 12:40:33;;;;;;;6.22;1.50;;;;;;;10.40;56.35;99049.97;10384520;28;20587;-60
2022/12/29 12:45:43;;;;;;;5.88;1.42;;;;;;;10.50;57.08;99053.63;10382349;28;20367;-60
2022/12/29 12:50:51;;;;;;;7.40;2.10;;;;;;;10.45;57.37;99053.94;10382497;28;20049;-60
2022/12/29 12:56:12;;;;;;;5.40;1.60;;;;;;;10.44;55.20;99048.81;10379167;28;20111;-60
2022/12/29 13:01:13;;;;;;;9.50;1.65;;;;;;;10.59;56.05;99041.63;10377005;28;20060;-60
2022/12/29 13:06:26;;;;;;;7.95;2.10;;;;;;;10.74;56.02;99043.13;10381243;28;20057;-60
2022/12/29 13:11:31;;;;;;;8.32;1.60;;;;;;;10.53;55.31;99053.38;10385201;28;20050;-60
2022/12/29 13:16:47;;;;;;;6.07;1.60;;;;;;;10.61;55.28;99045.81;10389876;28;20049;-60
2022/12/29 13:22:13;;;;;;;4.38;1.48;;;;;;;10.81;55.25;99045.16;10391622;28;20463;-60
2022/12/29 13:27:18;;;;;;;6.38;1.38;;;;;;;10.68;54.30;99062.72;10388762;28;20061;-60
2022/12/29 13:32:40;;;;;;;7.93;1.80;;;;;;;10.79;55.16;99062.75;10389380;28;20195;-60
2022/12/29 13:37:52;;;;;;;7.03;1.70;;;;;;;10.93;54.66;99067.78;10389987;28;20132;-60
2022/12/29 13:42:56;;;;;;;8.25;1.70;;;;;;;10.89;54.48;99070.75;10389254;28;20581;-60
2022/12/29 13:48:05;;;;;;;5.38;1.63;;;;;;;10.86;53.59;99081.44;10390040;28;21051;-60
2022/12/29 13:53:41;;;;;;;8.70;1.80;;;;;;;10.89;54.21;99078.59;10387191;28;20064;-60
2022/12/29 13:59:10;;;;;;;5.57;1.52;;;;;;;10.65;53.74;99098.69;10375719;28;20060;-60
2022/12/29 14:04:14;;;;;;;8.02;1.67;;;;;;;10.60;54.03;99083.38;10389130;28;20061;-60
2022/12/29 14:09:35;;;;;;;8.63;1.90;;;;;;;10.04;53.31;99089.19;10387942;28;20050;-60
2022/12/29 14:14:41;;;;;;;6.63;1.50;;;;;;;10.09;54.16;99087.13;10387170;28;20057;-60
2022/12/29 14:19:45;;;;;;;5.93;1.58;;;;;;;10.04;54.52;99097.03;10388634;28;20045;-60
2022/12/29 14:24:46;;;;;;;6.55;1.67;;;;;;;9.97;54.93;99093.22;10386696;28;20061;-60
2022/12/29 14:29:50;;;;;;;11.18;1.60;;;;;;;9.91;55.11;99093.66;10388360;28;20529;-60
2022/12/29 14:34:56;;;;;;;9.98;1.60;;;;;;;9.93;55.06;99113.47;10387860;28;20045;-60
2022/12/29 14:40:14;;;;;;;10.70;1.75;;;;;;;9.98;55.22;99105.31;10386778;28;20040;-60
2022/12/29 14:45:16;;;;;;;7.30;2.55;;;;;;;10.07;54.87;99115.97;10388187;28;20049;-59
2022/12/29 14:50:21;;;;;;;6.40;1.55;;;;;;;10.04;54.62;99118.78;10385798;28;20049;-59
2022/12/29 14:55:49;;;;;;;10.45;3.83;;;;;;;10.10;54.15;99117.50;10387120;28;20426;-60
2022/12/29 15:00:51;;;;;;;6.63;1.80;;;;;;;10.11;54.64;99122.66;10384875;28;20060;-60
2022/12/29 15:05:55;;;;;;;6.68;1.50;;;;;;;10.10;54.36;99131.41;10384613;28;20559;-59
2022/12/29 15:11:11;;;;;;;4.38;1.50;;;;;;;10.01;54.21;99131.22;10386149;28;20050;-60
2022/12/29 15:16:31;;;;;;;7.30;2.25;;;;;;;9.84;54.17;99142.00;10385377;28;20053;-59
2022/12/29 15:21:35;;;;;;;7.18;1.60;;;;;;;9.57;53.61;99137.72;10386762;28;20049;-59
2022/12/29 15:26:43;;;;;;;7.32;2.10;;;;;;;9.61;53.66;99139.16;10379419;28;20057;-60
2022/12/29 15:31:48;;;;;;;6.25;1.98;;;;;;;9.50;54.20;99149.50;10382117;28;20053;-60
2022/12/29 15:36:51;;;;;;;8.80;1.90;;;;;;;9.37;54.27;99146.06;10382921;28;20045;-59
2022/12/29 15:42:03;;;;;;;8.65;1.70;;;;;;;9.33;54.24;99139.38;10384119;28;20061;-60
2022/12/29 15:47:14;;;;;;;7.10;1.70;;;;;;;9.11;54.77;99149.56;10383912;28;20136;-59
2022/12/29 15:52:23;;;;;;;6.93;1.80;;;;;;;9.00;53.89;99151.19;10382455;28;20053;-60
2022/12/29 15:57:32;;;;;;;7.15;1.67;;;;;;;8.95;54.49;99163.72;10384479;28;20190;-59
2022/12/29 16:02:34;;;;;;;7.68;1.80;;;;;;;8.94;54.92;99155.03;10382633;28;20048;-59
2022/12/29 16:07:36;;;;;;;6.88;1.80;;;;;;;8.89;55.03;99159.75;10382961;28;20103;-60
2022/12/29 16:12:42;;;;;;;7.35;2.10;;;;;;;8.80;55.13;99165.53;10384190;28;20045;-59
2022/12/29 16:17:55;;;;;;;9.55;2.20;;;;;;;8.73;54.96;99175.50;10381765;28;20045;-59
2022/12/29 16:22:59;;;;;;;6.10;1.55;;;;;;;8.59;55.46;99174.72;10381894;28;20132;-59
2022/12/29 16:28:03;;;;;;;9.23;1.75;;;;;;;8.63;55.09;99187.47;10381934;28;20132;-59
2022/12/29 16:33:05;;;;;;;8.20;1.75;;;;;;;8.53;55.26;99199.41;10382512;28;20547;-59
2022/12/29 16:38:13;;;;;;;9.75;1.65;;;;;;;8.49;55.25;99202.28;10381625;28;20068;-59
2022/12/29 16:43:21;;;;;;;9.77;2.00;;;;;;;8.43;55.37;99216.56;10382262;28;20486;-59
2022/12/29 16:48:28;;;;;;;10.27;2.25;;;;;;;8.39;55.41;99214.22;10373505;28;20216;-60
2022/12/29 16:53:38;;;;;;;7.68;2.28;;;;;;;8.35;55.29;99224.00;10380537;28;20049;-59
2022/12/29 16:58:40;;;;;;;7.40;1.73;;;;;;;8.30;55.25;99230.44;10376609;28;20064;-59
2022/12/29 17:03:56;;;;;;;13.75;4.75;;;;;;;8.25;55.29;99222.06;10379868;28;20052;-59
2022/12/29 17:08:58;;;;;;;7.45;1.98;;;;;;;8.23;55.61;99231.72;10379824;28;20581;-59
2022/12/29 17:14:00;;;;;;;8.63;1.77;;;;;;;8.19;55.55;99238.06;10382388;28;20049;-59
2022/12/29 17:19:01;;;;;;;8.35;2.00;;;;;;;8.21;55.40;99244.84;10379071;28;20064;-59
2022/12/29 17:24:05;;;;;;;6.32;1.65;;;;;;;8.20;55.99;99255.38;10380253;28;20464;-61
2022/12/29 17:29:14;;;;;;;9.57;2.00;;;;;;;8.04;56.17;99248.44;10382029;28;20046;-61
2022/12/29 17:34:16;;;;;;;8.93;2.25;;;;;;;8.00;56.41;99264.34;10382491;28;20060;-61
2022/12/29 17:39:18;;;;;;;10.05;1.92;;;;;;;8.00;56.41;99259.97;10375746;28;20382;-61
2022/12/29 17:44:22;;;;;;;11.43;2.17;;;;;;;7.92;56.47;99271.75;10376886;28;20045;-61
2022/12/29 17:49:24;;;;;;;9.82;2.30;;;;;;;7.87;56.61;99255.59;10378422;28;20152;-61
2022/12/29 17:54:26;;;;;;;8.32;2.10;;;;;;;7.82;56.67;99258.47;10377393;28;20060;-61
2022/12/29 17:59:27;;;;;;;7.57;2.00;;;;;;;7.74;56.86;99255.47;10386047;28;20057;-61
2022/12/29 18:04:29;;;;;;;10.15;2.17;;;;;;;7.69;57.03;99259.28;10387058;28;20056;-60
2022/12/29 18:09:31;;;;;;;8.52;2.00;;;;;;;7.50;57.19;99258.66;10388241;28;20132;-60
2022/12/29 18:14:32;;;;;;;7.00;1.88;;;;;;;7.60;57.12;99276.28;10372590;28;20120;-60
2022/12/29 18:19:34;;;;;;;14.02;4.03;;;;;;;7.44;57.52;99285.88;10344675;28;20054;-61
2022/12/29 18:24:36;;;;;;;15.27;4.10;;;;;;;7.31;57.80;99297.06;10342986;28;20057;-59
2022/12/29 18:29:39;;;;;;;15.00;5.00;;;;;;;7.31;57.87;99299.66;10342440;28;20060;-61
2022/12/29 18:34:41;;;;;;;18.52;4.30;;;;;;;7.20;58.22;99303.69;10345745;28;20063;-60
2022/12/29 18:39:43;;;;;;;12.68;3.85;;;;;;;7.08;58.36;99312.19;10345220;28;20049;-60
2022/12/29 18:44:45;;;;;;;9.32;3.83;;;;;;;6.95;58.65;99310.34;10344063;28;20054;-60
2022/12/29 18:49:46;;;;;;;16.73;3.45;;;;;;;6.76;59.07;99313.09;10345631;28;20195;-60
2022/12/29 18:54:48;;;;;;;14.40;4.40;;;;;;;6.68;59.54;99317.88;10344923;28;20038;-60
2022/12/29 18:59:50;;;;;;;13.30;4.32;;;;;;;6.59;59.73;99323.59;10342881;28;20049;-60
2022/12/29 19:04:51;;;;;;;13.30;3.63;;;;;;;6.67;59.88;99320.56;10346925;28;20041;-60
2022/12/29 19:09:58;;;;;;;19.15;5.82;;;;;;;6.71;59.91;99328.13;10344164;28;20049;-60
2022/12/29 19:15:01;;;;;;;14.80;5.55;;;;;;;6.72;60.10;99328.94;10344456;28;20426;-60
2022/12/29 19:20:03;;;;;;;18.20;5.97;;;;;;;6.70;60.07;99335.97;10344864;28;20241;-60
2022/12/29 19:25:05;;;;;;;12.43;5.38;;;;;;;6.74;60.15;99340.09;10344514;28;20225;-61
2022/12/29 19:30:11;;;;;;;15.25;5.63;;;;;;;6.74;60.30;99353.09;10345211;28;20049;-61
2022/12/29 19:35:12;;;;;;;13.15;4.22;;;;;;;6.73;60.26;99354.88;10342239;28;20069;-61
2022/12/29 19:40:18;;;;;;;11.82;3.70;;;;;;;6.73;60.55;99356.63;10338754;28;20060;-61
2022/12/29 19:45:19;;;;;;;14.25;5.25;;;;;;;6.82;60.38;99356.09;10343148;28;20053;-61
2022/12/29 19:50:21;;;;;;;11.88;3.67;;;;;;;6.81;60.67;99359.66;10343385;28;20049;-61
2022/12/29 19:55:23;;;;;;;15.07;3.75;;;;;;;6.83;60.66;99363.84;10341588;28;20566;-61
2022/12/29 20:00:24;;;;;;;11.75;4.05;;;;;;;6.85;60.62;99361.16;10343533;28;20062;-61
2022/12/29 20:05:26;;;;;;;12.02;3.88;;;;;;;6.69;60.69;99357.69;10340561;28;20053;-61
2022/12/29 20:10:28;;;;;;;13.18;5.93;;;;;;;6.60;61.16;99371.16;10337935;28;20076;-60
2022/12/29 20:15:29;;;;;;;17.98;6.50;;;;;;;6.45;61.38;99369.38;10343956;28;20050;-61
2022/12/29 20:20:33;;;;;;;12.07;5.35;;;;;;;6.32;61.78;99367.41;10339063;28;20501;-61
2022/12/29 20:25:34;;;;;;;11.60;4.50;;;;;;;6.22;62.10;99373.13;10341491;28;20141;-60
2022/12/29 20:31:03;;;;;;;12.23;4.47;;;;;;;6.07;62.63;99371.28;10342906;28;20485;-61
2022/12/29 20:36:08;;;;;;;13.77;3.28;;;;;;;6.14;62.62;99378.69;10341165;28;20418;-61
2022/12/29 20:41:12;;;;;;;9.13;2.70;;;;;;;6.22;62.93;99381.75;10343156;28;20053;-60
2022/12/29 20:46:14;;;;;;;11.88;2.67;;;;;;;6.29;63.06;99387.50;10340346;28;20696;-61
2022/12/29 20:51:21;;;;;;;11.10;2.42;;;;;;;6.47;62.75;99393.53;10340853;28;20041;-60
2022/12/29 20:56:26;;;;;;;11.70;2.65;;;;;;;6.54;62.72;99400.91;10343047;28;20168;-61
2022/12/29 21:01:28;;;;;;;12.95;2.70;;;;;;;6.67;62.58;99403.72;10341484;28;20058;-60
2022/12/29 21:06:31;;;;;;;12.55;2.50;;;;;;;6.73;62.39;99404.25;10342251;28;20049;-60
2022/12/29 21:11:33;;;;;;;12.23;2.50;;;;;;;6.71;62.51;99421.66;10343020;28;20042;-60
2022/12/29 21:16:34;;;;;;;13.68;3.03;;;;;;;6.76;62.79;99429.19;10344689;28;20046;-60
2022/12/29 21:21:37;;;;;;;14.20;3.55;;;;;;;6.72;62.76;99432.88;10342164;28;20564;-59
2022/12/29 21:26:39;;;;;;;17.88;3.20;;;;;;;6.71;62.95;99442.47;10342078;28;20307;-59
2022/12/29 21:31:40;;;;;;;13.55;3.28;;;;;;;6.75;62.85;99453.53;10344710;28;20060;-59
2022/12/29 21:36:42;;;;;;;16.08;3.47;;;;;;;6.82;62.72;99452.28;10345236;28;20463;-58
2022/12/29 21:41:46;;;;;;;11.20;2.40;;;;;;;7.02;62.28;99442.50;10343763;28;20480;-58
2022/12/29 21:46:47;;;;;;;13.85;3.20;;;;;;;7.10;62.15;99450.75;10343451;28;20060;-58
2022/12/29 21:51:49;;;;;;;13.70;2.60;;;;;;;7.17;61.91;99451.25;10341612;28;20042;-58
2022/12/29 21:56:51;;;;;;;14.23;2.65;;;;;;;7.14;61.89;99456.66;10346351;28;20049;-58
2022/12/29 22:17:55;;;;;;;12.07;2.80;;;;;;;7.37;61.64;99476.19;10344279;28;20133;-59
2022/12/29 22:22:57;;;;;;;11.68;2.22;;;;;;;7.43;61.49;99487.13;10345185;28;20525;-58
2022/12/29 22:27:58;;;;;;;15.27;2.72;;;;;;;7.40;61.64;99489.91;10345096;28;20061;-59
2022/12/29 22:33:00;;;;;;;13.13;2.72;;;;;;;7.33;61.73;99493.72;10345444;28;20049;-58
2022/12/29 22:38:02;;;;;;;10.35;2.50;;;;;;;7.22;61.88;99511.69;10344616;28;20093;-59
2022/12/29 22:43:04;;;;;;;18.95;2.88;;;;;;;7.04;62.23;99512.66;10344834;28;20050;-59
2022/12/29 22:48:13;;;;;;;10.80;2.70;;;;;;;7.04;62.29;99512.66;10345265;28;20049;-59
2022/12/29 22:53:15;;;;;;;12.27;2.65;;;;;;;6.96;62.20;99512.19;10338723;28;20752;-59
2022/12/29 22:58:17;;;;;;;11.50;2.65;;;;;;;6.86;62.53;99523.97;10342728;28;20073;-59
2022/12/29 23:03:19;;;;;;;15.13;3.17;;;;;;;6.78;62.60;99521.78;10342611;28;20057;-59
2022/12/29 23:08:21;;;;;;;12.70;3.20;;;;;;;6.71;62.66;99528.22;10336480;28;20217;-59
2022/12/29 23:13:23;;;;;;;10.77;2.63;;;;;;;6.63;62.81;99527.75;10337855;28;20465;-59
2022/12/29 23:18:26;;;;;;;10.15;3.03;;;;;;;6.54;62.96;99522.16;10333964;28;20053;-58
2022/12/29 23:28:52;;;;;;;12.15;2.70;;;;;;;6.34;63.36;99520.56;10335365;28;20077;-60
2022/12/29 23:34:02;;;;;;;18.80;3.00;;;;;;;6.26;63.53;99526.13;10342887;28;20391;-59
2022/12/29 23:39:04;;;;;;;12.73;3.20;;;;;;;6.22;63.42;99515.94;10342775;28;20188;-60
2022/12/29 23:44:06;;;;;;;11.50;3.17;;;;;;;6.21;63.50;99525.47;10338889;28;20057;-60
2022/12/29 23:49:08;;;;;;;17.02;3.13;;;;;;;6.18;63.45;99524.78;10338032;28;20061;-60
2022/12/29 23:54:10;;;;;;;13.82;2.85;;;;;;;6.11;63.56;99534.63;10338051;28;20815;-60
2022/12/29 23:59:11;;;;;;;14.43;2.97;;;;;;;6.14;63.56;99518.06;10339723;28;20053;-60
